Time;durP1;ratioP1;P1;durP2;ratioP2;P2;SDS_P1;SDS_P2;PMS_P1;PMS_P2;Temp;Humidity;BMP_temperature;BMP_pressure;BME280_temperature;BME280_humidity;BME280_pressure;Samples;Min_cycle;Max_cycle;Signal;HPM_P1;HPM_P2
2022/12/24 00:00:34;;;;;;;19.62;13.03;;;;;;;5.02;79.74;96235.66;1723234;82;26287;-72
2022/12/24 00:03:03;;;;;;;20.23;13.38;;;;;;;4.99;79.85;96232.05;1722983;82;25765;-74
2022/12/24 00:05:29;;;;;;;20.60;13.75;;;;;;;4.98;79.98;96229.06;1747175;80;26520;-72
2022/12/24 00:07:56;;;;;;;20.75;14.47;;;;;;;5.01;80.02;96231.84;1757944;79;25463;-71
2022/12/24 00:10:23;;;;;;;22.75;15.40;;;;;;;4.99;80.02;96235.23;1754580;79;27385;-74
2022/12/24 00:12:50;;;;;;;21.75;15.18;;;;;;;4.98;80.06;96238.94;1754619;79;25760;-72
2022/12/24 00:15:16;;;;;;;26.12;16.23;;;;;;;4.98;80.16;96238.94;1754773;79;25740;-71
2022/12/24 00:17:43;;;;;;;24.37;14.90;;;;;;;4.99;80.15;96237.91;1754783;79;26384;-72
2022/12/24 00:20:10;;;;;;;21.50;15.20;;;;;;;5.00;80.14;96236.88;1754692;79;25676;-72
2022/12/24 00:22:37;;;;;;;21.23;13.83;;;;;;;4.98;80.09;96238.42;1754365;79;27466;-72
2022/12/24 00:25:04;;;;;;;22.70;13.75;;;;;;;4.97;80.14;96241.30;1754607;79;26190;-72
2022/12/24 00:27:30;;;;;;;17.27;11.00;;;;;;;4.95;80.25;96236.70;1754751;79;25636;-72
2022/12/24 00:29:57;;;;;;;16.73;9.90;;;;;;;4.90;80.26;96239.14;1754586;79;26205;-72
2022/12/24 00:32:24;;;;;;;17.42;9.98;;;;;;;4.87;80.33;96236.88;1754425;79;25450;-73
2022/12/24 00:34:50;;;;;;;15.30;10.35;;;;;;;4.84;80.50;96242.62;1755976;79;28144;-73
2022/12/24 00:37:17;;;;;;;16.90;10.10;;;;;;;4.79;80.56;96230.39;1757608;78;25691;-71
2022/12/24 00:39:44;;;;;;;15.28;10.32;;;;;;;4.80;80.69;96236.05;1757643;80;25667;-74
2022/12/24 00:42:10;;;;;;;17.98;11.63;;;;;;;4.81;80.71;96221.66;1757647;78;25736;-72
2022/12/24 00:44:37;;;;;;;20.95;13.05;;;;;;;4.81;80.77;96212.30;1757745;78;25763;-72
2022/12/24 00:47:04;;;;;;;17.62;12.33;;;;;;;4.83;80.84;96203.56;1757497;78;27358;-73
2022/12/24 00:49:30;;;;;;;23.25;13.22;;;;;;;4.83;80.87;96195.55;1757496;78;25482;-72
2022/12/24 00:51:57;;;;;;;18.15;11.30;;;;;;;4.83;80.89;96183.52;1757652;78;25675;-72
2022/12/24 00:54:23;;;;;;;16.07;10.28;;;;;;;4.82;80.95;96176.52;1757594;78;26419;-72
2022/12/24 00:56:51;;;;;;;18.75;11.88;;;;;;;4.82;81.02;96184.03;1757675;78;25768;-72
2022/12/24 00:59:17;;;;;;;21.48;14.87;;;;;;;4.82;81.07;96184.54;1757678;78;28234;-71
2022/12/24 01:01:44;;;;;;;19.27;12.45;;;;;;;4.77;81.07;96179.80;1757221;78;25684;-72
2022/12/24 01:06:56;;;;;;;20.02;13.43;;;;;;;4.68;81.12;96155.12;1757738;78;26352;-73
2022/12/24 01:09:22;;;;;;;24.65;14.65;;;;;;;4.64;81.21;96164.56;1757436;78;25759;-72
2022/12/24 01:11:50;;;;;;;26.35;14.50;;;;;;;4.63;81.24;96163.43;1757333;78;27406;-72
2022/12/24 01:14:17;;;;;;;25.12;17.60;;;;;;;4.63;81.21;96162.92;1757496;78;25646;-74
2022/12/24 01:16:43;;;;;;;20.35;13.58;;;;;;;4.57;81.25;96158.92;1757580;78;25253;-74
2022/12/24 01:19:10;;;;;;;21.73;14.35;;;;;;;4.52;81.36;96158.69;1757523;78;26437;-72
2022/12/24 01:21:37;;;;;;;19.23;14.10;;;;;;;4.51;81.47;96153.86;1757555;78;25775;-72
2022/12/24 01:24:04;;;;;;;21.90;15.03;;;;;;;4.53;81.49;96146.47;1757614;78;27354;-72
2022/12/24 01:26:30;;;;;;;27.58;17.50;;;;;;;4.55;81.50;96131.57;1757591;78;25627;-74
2022/12/24 01:28:58;;;;;;;28.87;16.35;;;;;;;4.56;81.48;96130.55;1757555;78;25743;-73
2022/12/24 01:31:25;;;;;;;25.60;16.27;;;;;;;4.53;81.51;96131.77;1757555;78;25715;-72
2022/12/24 01:33:51;;;;;;;21.82;14.58;;;;;;;4.50;81.60;96124.16;1757620;78;25789;-71
2022/12/24 01:36:18;;;;;;;20.23;14.00;;;;;;;4.50;81.62;96124.66;1732779;79;27362;-71
2022/12/24 01:38:45;;;;;;;27.75;17.35;;;;;;;4.50;81.62;96120.14;1763503;79;25532;-72
2022/12/24 01:44:25;;;;;;;25.02;15.50;;;;;;;4.46;81.75;96114.09;1661394;84;26705;-72
2022/12/24 01:47:27;;;;;;;24.57;15.08;;;;;;;4.49;81.73;96123.84;1686627;84;25496;-72
2022/12/24 01:50:01;;;;;;;24.65;16.35;;;;;;;4.50;81.73;96129.50;1661290;84;26272;-72
2022/12/24 01:52:34;;;;;;;22.58;15.32;;;;;;;4.48;81.63;96130.21;1668596;85;25875;-73
2022/12/24 01:55:09;;;;;;;26.95;16.20;;;;;;;4.47;81.59;96140.59;1674193;84;25875;-72
2022/12/24 01:57:56;;;;;;;23.90;16.45;;;;;;;4.44;81.54;96137.52;1668709;85;26592;-73
2022/12/24 02:00:22;;;;;;;28.92;17.48;;;;;;;4.42;81.63;96144.41;1674206;84;25707;-72
2022/12/24 02:02:52;;;;;;;32.28;17.57;;;;;;;4.41;81.58;96145.94;1672409;84;46399;-72
2022/12/24 02:05:46;;;;;;;25.95;16.93;;;;;;;4.38;81.52;96143.66;1666545;85;25950;-72
2022/12/24 02:08:14;;;;;;;28.40;17.67;;;;;;;4.37;81.65;96148.19;1667065;85;25825;-73
2022/12/24 02:10:40;;;;;;;23.30;16.45;;;;;;;4.38;81.68;96152.50;1674128;84;26534;-74
2022/12/24 02:13:08;;;;;;;27.20;16.60;;;;;;;4.39;81.69;96155.48;1668920;85;25914;-73
2022/12/24 02:15:40;;;;;;;26.52;15.40;;;;;;;4.36;81.65;96151.87;1674169;85;27409;-73
2022/12/24 02:18:18;;;;;;;21.42;13.90;;;;;;;4.31;81.70;96149.84;1608462;88;25770;-72
2022/12/24 02:21:23;;;;;;;24.57;16.52;;;;;;;4.29;81.74;96152.39;1610287;88;25698;-72
2022/12/24 02:24:22;;;;;;;25.12;16.87;;;;;;;4.27;81.75;96146.42;1609937;87;25933;-73
2022/12/24 02:27:27;;;;;;;23.20;14.40;;;;;;;4.26;81.88;96138.92;1615151;88;25898;-71
2022/12/24 02:30:11;;;;;;;21.50;13.83;;;;;;;4.29;82.00;96131.84;1614522;88;27418;-71
2022/12/24 02:33:05;;;;;;;20.02;13.43;;;;;;;4.28;81.99;96115.50;1612988;87;25768;-72
2022/12/24 02:35:40;;;;;;;18.05;13.95;;;;;;;4.30;82.08;96122.81;1611824;88;25869;-72
2022/12/24 02:38:30;;;;;;;22.93;13.95;;;;;;;4.28;82.12;96109.34;1604447;89;26495;-73
2022/12/24 02:41:03;;;;;;;20.30;13.93;;;;;;;4.27;82.10;96110.36;1610991;87;26035;-72
2022/12/24 02:43:35;;;;;;;20.40;14.18;;;;;;;4.25;82.16;96095.88;1600205;88;28941;-74
2022/12/24 02:46:12;;;;;;;21.27;12.93;;;;;;;4.26;82.29;96098.03;1624577;86;31120;-72
2022/12/24 02:48:43;;;;;;;21.82;14.50;;;;;;;4.26;82.33;96105.53;1651601;86;25769;-74
2022/12/24 02:51:10;;;;;;;19.60;13.15;;;;;;;4.26;82.33;96105.53;1624551;87;25690;-72
2022/12/24 02:53:38;;;;;;;16.70;11.85;;;;;;;4.25;82.27;96111.90;1654199;86;25722;-71
2022/12/24 02:56:25;;;;;;;15.88;12.43;;;;;;;4.25;82.22;96106.55;1624623;88;28295;-74
2022/12/24 02:59:32;;;;;;;16.05;11.12;;;;;;;4.25;82.21;96104.39;1654454;86;25585;-73
2022/12/24 03:02:33;;;;;;;16.55;10.98;;;;;;;4.26;82.17;96106.05;1600421;88;25838;-74
2022/12/24 03:05:23;;;;;;;15.95;12.10;;;;;;;4.21;82.11;96108.01;1600196;89;25823;-72
2022/12/24 03:08:22;;;;;;;18.27;13.40;;;;;;;4.20;82.22;96105.02;1596114;89;25845;-74
2022/12/24 03:11:07;;;;;;;19.62;12.28;;;;;;;4.17;82.27;96100.08;1572765;90;27507;-72
2022/12/24 03:13:34;;;;;;;16.52;11.48;;;;;;;4.18;82.30;96108.41;1574363;91;25864;-71
2022/12/24 03:16:05;;;;;;;19.90;12.35;;;;;;;4.17;82.37;96109.43;1553623;91;25882;-74
2022/12/24 03:18:32;;;;;;;16.95;12.20;;;;;;;4.20;82.47;96102.36;1551508;91;25779;-72
2022/12/24 03:21:10;;;;;;;18.75;12.05;;;;;;;4.23;82.45;96118.46;1551487;91;25769;-72
2022/12/24 03:23:37;;;;;;;20.62;11.95;;;;;;;4.25;82.46;96112.41;1551225;91;27421;-73
2022/12/24 03:26:08;;;;;;;18.82;13.80;;;;;;;4.26;82.41;96122.07;1527647;92;25767;-72
2022/12/24 03:28:38;;;;;;;17.95;13.20;;;;;;;4.25;82.42;96120.42;1527760;93;25347;-72
2022/12/24 03:31:07;;;;;;;20.23;15.20;;;;;;;4.24;82.49;96129.46;1525416;93;26614;-73
2022/12/24 03:33:34;;;;;;;24.18;15.23;;;;;;;4.24;82.56;96128.13;1527914;92;25899;-72
2022/12/24 03:36:02;;;;;;;20.08;13.90;;;;;;;4.26;82.55;96131.42;1542625;92;27412;-72
2022/12/24 03:38:29;;;;;;;20.82;15.03;;;;;;;4.23;82.59;96133.98;1581309;90;25836;-72
2022/12/24 03:40:56;;;;;;;20.05;13.50;;;;;;;4.23;82.64;96128.63;1628996;87;25780;-72
2022/12/24 03:43:23;;;;;;;20.82;14.65;;;;;;;4.24;82.67;96130.80;1655816;83;25831;-72
2022/12/24 03:45:49;;;;;;;21.68;14.70;;;;;;;4.24;82.76;96125.45;1701442;82;25731;-72
2022/12/24 03:48:16;;;;;;;24.70;14.68;;;;;;;4.25;82.78;96131.11;1741610;78;27371;-72
2022/12/24 03:50:43;;;;;;;18.55;13.68;;;;;;;4.25;82.76;96120.42;1745470;78;25230;-72
2022/12/24 03:53:09;;;;;;;17.32;12.82;;;;;;;4.18;82.75;96122.27;1768398;78;25251;-72
2022/12/24 03:55:38;;;;;;;17.15;12.93;;;;;;;4.17;82.98;96118.78;1775931;78;26825;-72
2022/12/24 03:58:04;;;;;;;17.40;12.75;;;;;;;4.19;83.13;96142.61;1752539;78;25502;-71
2022/12/24 04:00:31;;;;;;;17.30;12.45;;;;;;;4.24;83.24;96132.13;1738607;78;27395;-72
2022/12/24 04:02:58;;;;;;;17.23;12.75;;;;;;;4.26;83.24;96127.41;1775552;78;25844;-72
2022/12/24 04:05:25;;;;;;;17.00;12.75;;;;;;;4.25;83.23;96124.43;1767706;78;25705;-72
2022/12/24 04:07:51;;;;;;;17.48;12.23;;;;;;;4.25;83.26;96128.44;1745953;78;25685;-72
2022/12/24 04:10:18;;;;;;;24.52;12.98;;;;;;;4.27;83.30;96135.23;1738942;78;25673;-73
2022/12/24 04:12:45;;;;;;;23.47;13.10;;;;;;;4.27;83.32;96136.56;1775742;78;27419;-72
2022/12/24 04:15:11;;;;;;;29.07;15.20;;;;;;;4.25;83.40;96139.95;1738763;78;25646;-71
2022/12/24 04:17:38;;;;;;;29.63;16.00;;;;;;;4.29;83.55;96133.18;1738715;78;25750;-72
2022/12/24 04:20:07;;;;;;;25.20;14.45;;;;;;;4.30;83.50;96134.00;1738797;78;25700;-73
2022/12/24 04:22:34;;;;;;;23.10;13.85;;;;;;;4.32;83.56;96135.45;1738965;78;25689;-73
2022/12/24 04:25:01;;;;;;;17.70;11.25;;;;;;;4.34;83.63;96120.56;1738832;78;28162;-72
2022/12/24 04:27:29;;;;;;;14.75;9.88;;;;;;;4.36;83.67;96133.17;1766473;78;25810;-72
2022/12/24 04:29:56;;;;;;;18.07;10.20;;;;;;;4.37;83.77;96116.63;1748568;78;26140;-74
2022/12/24 04:32:25;;;;;;;17.10;11.90;;;;;;;4.43;84.08;96122.00;1751235;78;25682;-74
2022/12/24 04:34:52;;;;;;;15.10;9.00;;;;;;;4.50;84.16;96109.97;1767397;79;25658;-72
2022/12/24 04:37:18;;;;;;;14.80;9.85;;;;;;;4.49;83.96;96114.48;1732925;79;27526;-73
2022/12/24 04:39:45;;;;;;;16.77;9.45;;;;;;;4.49;84.03;96117.16;1732992;79;25744;-72
2022/12/24 04:42:11;;;;;;;15.43;9.73;;;;;;;4.53;84.16;96121.08;1732995;79;25703;-73
2022/12/24 04:44:38;;;;;;;15.93;9.38;;;;;;;4.57;84.11;96113.48;1757226;79;25676;-72
2022/12/24 04:47:05;;;;;;;16.62;10.50;;;;;;;4.60;84.10;96113.87;1746117;79;25463;-73
2022/12/24 04:49:31;;;;;;;18.62;10.35;;;;;;;4.62;84.17;96117.17;1776716;79;28253;-74
2022/12/24 04:51:58;;;;;;;22.13;12.25;;;;;;;4.64;84.22;96115.13;1776318;79;25823;-74
2022/12/24 04:54:25;;;;;;;14.55;9.53;;;;;;;4.66;84.20;96115.74;1776702;79;25735;-72
2022/12/24 04:56:51;;;;;;;16.50;9.28;;;;;;;4.67;84.21;96114.72;1747084;79;25688;-72
2022/12/24 04:59:18;;;;;;;12.10;6.92;;;;;;;4.71;84.26;96120.45;1733009;79;25700;-72
2022/12/24 05:01:45;;;;;;;12.53;7.40;;;;;;;4.73;84.22;96114.91;1733169;79;27445;-73
2022/12/24 05:04:11;;;;;;;9.98;6.95;;;;;;;4.76;84.29;96129.20;1741614;79;25822;-73
2022/12/24 05:06:38;;;;;;;8.60;5.95;;;;;;;4.79;84.31;96127.47;1754593;79;25754;-72
2022/12/24 05:09:05;;;;;;;8.68;5.92;;;;;;;4.79;84.36;96135.48;1733018;79;26450;-72
2022/12/24 05:11:31;;;;;;;10.98;6.28;;;;;;;4.79;84.36;96120.78;1732979;79;25692;-73
2022/12/24 05:13:58;;;;;;;10.00;6.25;;;;;;;4.78;84.37;96129.83;1733094;79;27441;-71
2022/12/24 05:16:24;;;;;;;8.68;6.47;;;;;;;4.79;84.40;96128.80;1732799;79;25478;-71
2022/12/24 05:18:51;;;;;;;10.35;7.58;;;;;;;4.78;84.35;96136.51;1760900;79;25695;-72
2022/12/24 05:21:22;;;;;;;12.03;8.50;;;;;;;4.77;84.39;96140.20;1745854;79;25692;-72
2022/12/24 05:26:45;;;;;;;11.18;7.17;;;;;;;4.77;84.45;96145.55;1741587;79;27458;-71
2022/12/24 05:29:12;;;;;;;8.15;6.33;;;;;;;4.79;84.55;96143.50;1732868;79;25752;-73
2022/12/24 05:31:41;;;;;;;7.80;6.15;;;;;;;4.79;84.57;96142.17;1746768;79;25727;-73
2022/12/24 05:34:08;;;;;;;15.85;10.85;;;;;;;4.82;84.76;96141.77;1758097;79;26530;-72
2022/12/24 05:36:35;;;;;;;11.97;8.58;;;;;;;4.86;84.73;96155.01;1732793;79;25719;-74
2022/12/24 05:39:02;;;;;;;9.03;6.62;;;;;;;4.84;84.54;96147.70;1732963;79;27434;-72
2022/12/24 05:41:29;;;;;;;7.20;5.45;;;;;;;4.86;84.61;96157.68;1732811;79;25755;-73
2022/12/24 05:43:56;;;;;;;8.48;5.40;;;;;;;4.89;84.83;96153.27;1758225;79;25720;-72
2022/12/24 05:46:24;;;;;;;10.28;6.42;;;;;;;4.94;84.99;96163.66;1738262;79;25760;-71
2022/12/24 05:48:52;;;;;;;10.68;6.70;;;;;;;4.96;85.04;96162.92;1733060;79;25831;-72
2022/12/24 05:51:21;;;;;;;10.18;6.67;;;;;;;4.99;85.08;96173.72;1732843;79;27418;-73
2022/12/24 05:53:50;;;;;;;11.65;8.25;;;;;;;4.98;84.97;96163.54;1751618;79;25807;-71
2022/12/24 05:56:21;;;;;;;12.78;10.90;;;;;;;4.97;84.97;96175.27;1743799;79;25712;-71
2022/12/24 05:58:49;;;;;;;10.48;7.33;;;;;;;4.96;85.02;96183.48;1732674;79;25721;-74
2022/12/24 06:01:16;;;;;;;12.45;8.48;;;;;;;4.95;85.03;96179.99;1733180;79;25849;-74
2022/12/24 06:03:43;;;;;;;11.60;8.43;;;;;;;4.94;84.99;96186.39;1762930;79;27384;-72
2022/12/24 06:06:16;;;;;;;12.37;9.00;;;;;;;4.97;85.06;96186.48;1732778;79;25744;-73
2022/12/24 06:08:43;;;;;;;15.50;10.15;;;;;;;4.98;85.13;96189.45;1732870;79;25771;-72
2022/12/24 06:11:12;;;;;;;11.70;9.43;;;;;;;4.99;85.06;96187.92;1732662;79;25784;-74
2022/12/24 06:13:41;;;;;;;12.43;8.75;;;;;;;5.00;85.11;96186.07;1732943;79;25764;-74
2022/12/24 06:16:11;;;;;;;12.55;9.20;;;;;;;5.00;85.11;96185.55;1755926;79;27390;-71
2022/12/24 06:18:38;;;;;;;9.55;7.42;;;;;;;5.00;85.12;96194.92;1770083;79;25891;-72
2022/12/24 06:21:06;;;;;;;13.20;8.00;;;;;;;4.98;85.18;96191.63;1732950;79;25799;-74
2022/12/24 06:23:36;;;;;;;9.45;6.40;;;;;;;5.01;85.29;96190.39;1763945;79;26422;-72
2022/12/24 06:26:05;;;;;;;9.38;6.45;;;;;;;5.05;85.35;96196.98;1732947;79;26842;-73
2022/12/24 06:28:35;;;;;;;18.60;11.22;;;;;;;5.09;85.41;96195.52;1732899;79;27441;-72
2022/12/24 06:31:04;;;;;;;24.10;14.45;;;;;;;5.12;85.40;96196.97;1742601;80;25772;-71
2022/12/24 06:33:35;;;;;;;26.42;15.95;;;;;;;5.13;85.42;96199.44;1734249;79;26174;-74
2022/12/24 06:36:02;;;;;;;25.90;16.55;;;;;;;5.13;85.43;96203.45;1738487;79;26470;-73
2022/12/24 06:38:31;;;;;;;20.32;13.95;;;;;;;5.13;85.36;96199.95;1753183;78;25884;-72
2022/12/24 06:40:58;;;;;;;23.83;13.62;;;;;;;5.12;85.46;96209.83;1757620;78;28203;-74
2022/12/24 06:43:25;;;;;;;21.82;13.55;;;;;;;5.11;85.50;96211.38;1757451;78;25224;-74
2022/12/24 06:45:52;;;;;;;23.67;14.38;;;;;;;5.10;85.45;96212.40;1757765;78;25807;-72
2022/12/24 06:48:19;;;;;;;15.70;10.98;;;;;;;5.10;85.44;96215.07;1757716;78;25759;-71
2022/12/24 06:50:45;;;;;;;24.18;12.82;;;;;;;5.11;85.46;96226.91;1757624;78;25767;-72
2022/12/24 06:53:12;;;;;;;20.17;12.85;;;;;;;5.11;85.42;96218.06;1757735;78;28088;-71
2022/12/24 06:55:39;;;;;;;16.57;10.58;;;;;;;5.11;85.41;96231.44;1757494;78;25733;-75
2022/12/24 06:58:05;;;;;;;13.45;9.35;;;;;;;5.10;85.35;96233.28;1757555;78;25728;-72
2022/12/24 07:00:32;;;;;;;11.12;8.08;;;;;;;5.10;85.28;96248.00;1757527;78;26115;-73
2022/12/24 07:02:59;;;;;;;12.10;8.45;;;;;;;5.10;85.22;96242.64;1758056;78;26008;-72
2022/12/24 07:05:26;;;;;;;10.18;7.97;;;;;;;5.11;85.41;96245.63;1757839;78;28010;-73
2022/12/24 07:07:53;;;;;;;10.68;7.70;;;;;;;5.11;85.46;96256.33;1757787;78;25723;-73
2022/12/24 07:10:20;;;;;;;9.58;7.80;;;;;;;5.06;85.39;96246.78;1757828;78;25704;-73
2022/12/24 07:12:48;;;;;;;8.28;7.05;;;;;;;5.08;85.50;96251.38;1757725;78;25835;-73
2022/12/24 07:15:16;;;;;;;8.68;6.80;;;;;;;5.10;85.62;96262.70;1757916;78;25784;-72
2022/12/24 07:17:43;;;;;;;8.90;7.12;;;;;;;5.12;85.62;96261.99;1757818;78;27387;-72
2022/12/24 07:20:13;;;;;;;7.67;6.60;;;;;;;5.11;85.55;96260.34;1757871;78;25835;-73
2022/12/24 07:22:40;;;;;;;10.10;6.65;;;;;;;5.13;85.59;96252.12;1757804;78;26652;-73
2022/12/24 07:25:08;;;;;;;7.40;5.67;;;;;;;5.16;85.72;96261.91;1757886;78;25732;-74
2022/12/24 07:27:36;;;;;;;6.05;5.40;;;;;;;5.19;85.82;96266.85;1757862;78;25846;-73
2022/12/24 07:30:04;;;;;;;6.85;5.40;;;;;;;5.26;85.95;96262.31;1757614;78;27430;-73
2022/12/24 07:32:31;;;;;;;7.10;5.70;;;;;;;5.32;85.98;96266.83;1757625;78;25256;-72
2022/12/24 07:34:57;;;;;;;7.40;6.65;;;;;;;5.37;86.04;96260.35;1757933;78;25777;-73
2022/12/24 07:37:24;;;;;;;10.53;7.33;;;;;;;5.42;86.02;96269.11;1757560;78;25664;-74
2022/12/24 07:39:51;;;;;;;11.18;7.90;;;;;;;5.43;85.94;96269.42;1757826;78;25906;-72
2022/12/24 07:42:18;;;;;;;11.68;8.20;;;;;;;5.47;85.97;96280.00;1779252;78;28228;-74
2022/12/24 07:44:44;;;;;;;11.18;8.48;;;;;;;5.50;86.01;96289.48;1796648;78;25435;-73
2022/12/24 07:47:11;;;;;;;13.25;8.58;;;;;;;5.50;85.95;96284.95;1801611;78;25703;-73
2022/12/24 07:49:38;;;;;;;10.45;8.15;;;;;;;5.54;85.96;96293.40;1806968;78;26439;-73
2022/12/24 07:52:04;;;;;;;10.03;7.17;;;;;;;5.58;86.06;96291.94;1805804;78;25756;-73
2022/12/24 07:54:31;;;;;;;11.60;8.65;;;;;;;5.60;86.12;96285.34;1804147;78;27360;-73
2022/12/24 07:56:58;;;;;;;14.13;8.60;;;;;;;5.64;86.11;96300.49;1808005;78;25461;-74
2022/12/24 07:59:24;;;;;;;11.25;8.28;;;;;;;5.66;86.06;96294.42;1800659;78;25770;-72
2022/12/24 08:01:51;;;;;;;15.48;9.83;;;;;;;5.67;86.01;96286.70;1809533;78;25678;-72
2022/12/24 08:04:18;;;;;;;11.90;9.45;;;;;;;5.70;86.08;96288.94;1801443;78;25395;-73
2022/12/24 08:06:44;;;;;;;13.90;9.95;;;;;;;5.73;86.06;96292.55;1808569;78;28182;-72
2022/12/24 08:09:13;;;;;;;11.22;9.15;;;;;;;5.76;86.12;96295.64;1803754;78;25435;-73
2022/12/24 08:11:39;;;;;;;12.47;9.90;;;;;;;5.79;86.10;96304.60;1805063;78;25246;-73
2022/12/24 08:14:06;;;;;;;11.00;7.95;;;;;;;5.83;86.18;96304.16;1806782;78;25707;-73
2022/12/24 08:16:33;;;;;;;14.78;9.03;;;;;;;5.85;86.21;96306.95;1803006;78;26426;-72
2022/12/24 08:18:59;;;;;;;13.85;9.63;;;;;;;5.93;86.37;96308.09;1809428;78;27370;-72
2022/12/24 08:21:26;;;;;;;11.95;8.50;;;;;;;6.05;86.49;96302.91;1799754;78;25768;-73
2022/12/24 08:23:52;;;;;;;13.40;9.53;;;;;;;6.13;86.50;96302.70;1808794;78;25686;-73
2022/12/24 08:26:19;;;;;;;13.58;8.93;;;;;;;6.25;86.55;96313.59;1802497;78;25598;-75
2022/12/24 08:28:46;;;;;;;16.12;10.38;;;;;;;6.30;86.48;96317.79;1807218;78;25247;-72
2022/12/24 08:31:14;;;;;;;15.20;9.93;;;;;;;6.37;86.44;96319.95;1773934;78;28225;-72
2022/12/24 08:33:41;;;;;;;13.40;7.87;;;;;;;6.43;86.41;96329.81;1757553;78;25239;-73
2022/12/24 08:36:08;;;;;;;8.10;5.17;;;;;;;6.51;86.36;96334.96;1757574;78;25734;-72
2022/12/24 08:38:35;;;;;;;15.85;9.60;;;;;;;6.66;86.37;96329.31;1739644;79;25912;-71
2022/12/24 08:41:01;;;;;;;15.88;9.70;;;;;;;6.78;86.28;96339.16;1776653;79;25807;-73
2022/12/24 08:43:28;;;;;;;20.37;10.98;;;;;;;6.86;86.08;96340.28;1742661;79;27184;-74
2022/12/24 08:45:55;;;;;;;19.80;11.57;;;;;;;6.93;85.88;96347.45;1732817;79;25817;-73
2022/12/24 08:48:22;;;;;;;17.20;10.32;;;;;;;6.99;85.73;96345.27;1762982;79;25679;-73
2022/12/24 08:50:48;;;;;;;17.82;10.58;;;;;;;7.03;85.63;96339.76;1776482;79;25736;-72
2022/12/24 08:53:15;;;;;;;36.35;16.48;;;;;;;7.08;85.54;96345.31;1750487;79;25699;-72
2022/12/24 08:55:42;;;;;;;21.23;11.28;;;;;;;7.12;85.41;96351.91;1763638;79;27471;-72
2022/12/24 08:58:09;;;;;;;19.27;12.43;;;;;;;7.16;85.37;96349.08;1755298;79;25675;-73
2022/12/24 09:00:36;;;;;;;22.98;13.45;;;;;;;7.17;85.29;96349.38;1745784;79;25806;-74
2022/12/24 09:03:03;;;;;;;25.02;16.20;;;;;;;7.20;85.21;96344.42;1757777;79;25844;-73
2022/12/24 09:05:31;;;;;;;23.87;15.60;;;;;;;7.21;85.11;96347.41;1732606;79;25684;-72
2022/12/24 09:07:58;;;;;;;28.27;17.80;;;;;;;7.23;85.08;96359.27;1732941;79;27364;-73
2022/12/24 09:10:25;;;;;;;29.37;19.12;;;;;;;7.25;85.08;96350.46;1732135;79;25812;-72
2022/12/24 09:12:51;;;;;;;22.13;13.68;;;;;;;7.29;85.13;96355.71;1743633;79;25794;-72
2022/12/24 09:15:18;;;;;;;22.42;14.47;;;;;;;7.39;85.17;96352.55;1750448;79;26173;-73
2022/12/24 09:17:45;;;;;;;16.85;10.30;;;;;;;7.50;85.17;96350.50;1740540;79;25832;-73
2022/12/24 09:20:13;;;;;;;15.48;9.68;;;;;;;7.55;85.05;96344.80;1755260;79;27366;-73
2022/12/24 09:22:40;;;;;;;10.90;7.10;;;;;;;7.62;84.88;96352.79;1732782;79;25761;-74
2022/12/24 09:25:09;;;;;;;8.35;5.87;;;;;;;7.67;84.74;96356.17;1750803;79;25893;-73
2022/12/24 09:27:36;;;;;;;8.63;6.12;;;;;;;7.72;84.62;96367.92;1745442;79;25881;-74
2022/12/24 09:30:06;;;;;;;9.35;6.20;;;;;;;7.76;84.48;96364.26;1763508;79;25698;-74
2022/12/24 09:32:34;;;;;;;7.75;5.58;;;;;;;7.79;84.34;96363.31;1739542;79;28197;-75
2022/12/24 09:35:00;;;;;;;9.60;6.00;;;;;;;7.83;84.24;96358.33;1732628;79;25756;-74
2022/12/24 09:37:27;;;;;;;7.15;5.37;;;;;;;7.86;84.12;96363.23;1749664;79;25776;-74
2022/12/24 09:39:54;;;;;;;10.63;6.20;;;;;;;7.89;84.03;96363.63;1776420;79;25750;-73
2022/12/24 09:42:53;;;;;;;10.35;5.25;;;;;;;7.93;83.95;96382.83;1763407;79;25438;-73
2022/12/24 09:45:37;;;;;;;6.12;4.40;;;;;;;7.97;83.81;96364.42;1732931;79;27440;-73
2022/12/24 09:48:14;;;;;;;12.07;6.67;;;;;;;8.00;83.72;96368.81;1690671;82;25604;-73
2022/12/24 09:50:54;;;;;;;8.88;5.42;;;;;;;8.03;83.60;96367.03;1617793;87;26556;-75
2022/12/24 09:53:44;;;;;;;7.95;5.55;;;;;;;8.08;83.49;96376.61;1617403;87;25885;-75
2022/12/24 09:56:22;;;;;;;13.68;7.50;;;;;;;8.14;83.37;96382.44;1614524;86;25321;-76
2022/12/24 09:58:57;;;;;;;10.68;6.90;;;;;;;8.22;83.28;96379.98;1594065;88;27423;-75
2022/12/24 10:01:24;;;;;;;12.40;7.53;;;;;;;8.25;83.09;96385.74;1600335;88;25895;-73
2022/12/24 10:03:50;;;;;;;11.75;7.05;;;;;;;8.26;82.95;96395.45;1605415;88;25892;-74
2022/12/24 10:06:23;;;;;;;13.25;7.20;;;;;;;8.25;82.84;96387.08;1599435;88;25814;-73
2022/12/24 10:09:21;;;;;;;11.40;7.30;;;;;;;8.25;82.74;96413.97;1603733;88;26102;-75
2022/12/24 10:12:18;;;;;;;10.08;6.15;;;;;;;8.23;82.63;96409.33;1603187;88;28305;-72
2022/12/24 10:15:09;;;;;;;8.80;5.55;;;;;;;8.23;82.57;96413.36;1603569;88;25762;-74
2022/12/24 10:17:58;;;;;;;6.17;3.85;;;;;;;8.22;82.46;96405.52;1603006;88;25925;-72
2022/12/24 10:21:08;;;;;;;6.75;3.98;;;;;;;8.22;82.39;96399.62;1603441;88;26474;-74
2022/12/24 10:23:52;;;;;;;7.75;4.47;;;;;;;8.23;82.37;96405.30;1499467;94;26027;-73
2022/12/24 10:26:30;;;;;;;7.22;5.15;;;;;;;8.25;82.29;96405.91;1500795;94;28091;-73
2022/12/24 10:29:26;;;;;;;7.65;4.55;;;;;;;8.28;82.13;96412.19;1514421;92;25700;-73
2022/12/24 10:31:59;;;;;;;5.83;3.67;;;;;;;8.30;82.13;96419.52;1517825;92;26086;-73
2022/12/24 10:34:29;;;;;;;9.55;3.98;;;;;;;8.31;81.97;96409.59;1520656;92;34866;-75
2022/12/24 10:36:58;;;;;;;8.45;4.70;;;;;;;8.34;81.93;96419.91;1525427;91;25872;-74
2022/12/24 10:39:28;;;;;;;4.10;2.42;;;;;;;8.37;81.88;96437.48;1516866;92;27488;-74
2022/12/24 10:41:58;;;;;;;5.85;2.80;;;;;;;8.41;81.72;96430.62;1523909;93;26149;-73
2022/12/24 10:44:29;;;;;;;6.15;3.47;;;;;;;8.42;81.71;96424.20;1535587;93;25893;-73
2022/12/24 10:46:56;;;;;;;7.45;3.90;;;;;;;8.43;81.69;96419.13;1530839;93;26363;-75
2022/12/24 10:49:40;;;;;;;5.20;3.10;;;;;;;8.43;81.55;96412.41;1517923;93;25842;-73
2022/12/24 10:52:15;;;;;;;7.92;3.87;;;;;;;8.43;81.34;96417.78;1475991;95;27488;-73
2022/12/24 10:55:12;;;;;;;6.62;3.95;;;;;;;8.44;81.28;96406.80;1499096;88;25874;-74
2022/12/24 10:57:40;;;;;;;5.45;3.02;;;;;;;8.45;81.05;96415.70;1586568;88;26874;-74
2022/12/24 11:00:19;;;;;;;4.35;2.50;;;;;;;8.49;81.02;96439.74;1590475;88;26890;-74
2022/12/24 11:02:47;;;;;;;5.95;2.72;;;;;;;8.52;80.97;96442.00;1585016;88;25797;-75
2022/12/24 11:05:32;;;;;;;7.67;3.98;;;;;;;8.54;80.82;96443.95;1598033;88;27472;-75
2022/12/24 11:08:13;;;;;;;9.75;4.10;;;;;;;8.51;80.79;96445.20;1576769;89;25767;-73
2022/12/24 11:10:44;;;;;;;12.47;6.80;;;;;;;8.49;80.89;96453.19;1513926;93;27013;-73
2022/12/24 11:13:27;;;;;;;10.98;5.78;;;;;;;8.44;80.97;96447.67;1512766;93;25906;-74
2022/12/24 11:16:05;;;;;;;;;;;;;;;8.42;81.01;96447.06;1488129;94;25920;-74
2022/12/24 11:18:38;;;;;;;13.18;5.87;;;;;;;8.39;81.05;96436.73;1468952;96;28132;-73
2022/12/24 11:21:05;;;;;;;4.45;3.02;;;;;;;8.32;80.96;96454.81;1500875;94;25843;-73
2022/12/24 11:23:32;;;;;;;8.18;4.50;;;;;;;8.26;80.83;96461.33;1475325;95;25905;-74
2022/12/24 11:26:00;;;;;;;7.47;4.65;;;;;;;8.24;80.76;96448.61;1502586;95;25805;-73
2022/12/24 11:28:34;;;;;;;14.35;6.40;;;;;;;8.21;80.81;96467.07;1515268;93;25940;-74
2022/12/24 11:31:05;;;;;;;16.02;7.08;;;;;;;8.17;80.82;96462.64;1520269;92;27527;-73
2022/12/24 11:33:47;;;;;;;9.60;5.15;;;;;;;8.14;80.86;96463.08;1546743;91;25874;-74
2022/12/24 11:36:16;;;;;;;14.33;6.65;;;;;;;8.12;80.99;96469.19;1549462;91;25830;-75
2022/12/24 11:38:45;;;;;;;16.37;8.20;;;;;;;8.10;80.96;96467.75;1508185;93;25990;-73
2022/12/24 11:41:12;;;;;;;15.95;8.43;;;;;;;8.09;81.08;96476.88;1554304;91;25867;-73
2022/12/24 11:43:43;;;;;;;15.05;7.10;;;;;;;8.08;81.10;96480.61;1556729;90;27401;-73
2022/12/24 11:46:45;;;;;;;10.53;5.85;;;;;;;8.07;81.11;96481.13;1555626;90;25902;-74
2022/12/24 11:49:30;;;;;;;12.35;6.50;;;;;;;8.06;81.03;96490.75;1525287;92;25839;-74
2022/12/24 11:52:14;;;;;;;6.50;4.22;;;;;;;8.06;81.05;96488.89;1529031;92;26651;-73
2022/12/24 11:54:52;;;;;;;11.35;5.65;;;;;;;8.05;80.94;96492.62;1518195;92;25853;-73
2022/12/24 11:57:22;;;;;;;11.30;5.30;;;;;;;8.05;80.99;96487.76;1526825;92;27486;-73